Time;durP1;ratioP1;P1;durP2;ratioP2;P2;SDS_P1;SDS_P2;PMS_P1;PMS_P2;Temp;Humidity;BMP_temperature;BMP_pressure;BME280_temperature;BME280_humidity;BME280_pressure;Samples;Min_cycle;Max_cycle;Signal;HPM_P1;HPM_P2
2022/08/29 00:00:35;;;;;;;8.83;1.70;;;;;;;18.26;51.11;101776.94;4950291;28;97846;-48
2022/08/29 00:03:02;;;;;;;1.43;1.33;;;;;;;18.28;51.03;101779.25;4953709;28;96688;-48
2022/08/29 00:05:31;;;;;;;1.67;1.57;;;;;;;18.28;51.09;101773.66;4950693;28;97487;-49
2022/08/29 00:07:58;;;;;;;1.87;1.70;;;;;;;18.28;51.11;101759.75;4951681;28;100440;-49
2022/08/29 00:10:24;;;;;;;2.10;1.57;;;;;;;18.28;51.12;101765.31;4951087;28;96811;-49
2022/08/29 00:12:50;;;;;;;2.50;1.90;;;;;;;18.29;51.15;101766.81;4947850;28;97078;-49
2022/08/29 00:15:15;;;;;;;4.90;2.40;;;;;;;18.27;51.39;101758.97;4946585;28;97348;-49
2022/08/29 00:17:41;;;;;;;2.80;1.97;;;;;;;18.25;51.24;101767.09;4940996;28;97136;-49
2022/08/29 00:20:12;;;;;;;3.53;1.90;;;;;;;18.27;51.30;101770.13;4945960;28;97515;-49
2022/08/29 00:22:37;;;;;;;2.80;1.47;;;;;;;18.27;51.37;101763.78;4947574;28;96797;-49
2022/08/29 00:25:05;;;;;;;2.60;2.13;;;;;;;18.28;51.23;101768.84;4948365;28;97692;-49
2022/08/29 00:27:31;;;;;;;5.47;2.07;;;;;;;18.29;51.29;101764.03;4956803;28;97290;-48
2022/08/29 00:29:57;;;;;;;2.50;1.93;;;;;;;18.30;51.27;101769.09;4945737;28;97520;-49
2022/08/29 00:32:22;;;;;;;5.00;2.40;;;;;;;18.30;51.07;101762.75;4939551;28;97511;-47
2022/08/29 00:34:48;;;;;;;4.53;2.40;;;;;;;18.31;51.15;101769.81;4941304;28;97367;-48
2022/08/29 00:37:13;;;;;;;3.13;2.17;;;;;;;18.30;51.11;101773.91;4945500;28;96869;-49
2022/08/29 00:39:38;;;;;;;1.60;1.50;;;;;;;18.27;51.24;101766.56;4949137;28;97107;-49
2022/08/29 00:42:04;;;;;;;2.90;1.90;;;;;;;18.26;51.38;101762.28;4953513;28;97482;-49
2022/08/29 00:44:30;;;;;;;4.13;1.73;;;;;;;18.27;51.36;101766.56;4949585;28;97353;-48
2022/08/29 00:47:02;;;;;;;3.83;2.13;;;;;;;18.24;51.51;101765.56;4950691;28;100881;-49
2022/08/29 00:49:47;;;;;;;1.90;1.80;;;;;;;18.24;51.86;101770.41;4942149;28;96747;-48
2022/08/29 00:52:21;;;;;;;3.60;1.70;;;;;;;18.26;51.47;101771.38;4944655;28;97165;-51
2022/08/29 00:54:51;;;;;;;6.53;1.80;;;;;;;18.28;51.56;101771.63;4944865;28;97646;-49
2022/08/29 00:57:19;;;;;;;3.50;2.27;;;;;;;18.31;51.68;101764.25;4951596;28;97119;-48
2022/08/29 00:59:44;;;;;;;1.67;1.40;;;;;;;18.31;51.62;101755.91;4956792;28;97279;-49
2022/08/29 01:02:10;;;;;;;4.80;1.90;;;;;;;18.33;51.48;101761.69;4944796;28;97529;-49
2022/08/29 01:04:36;;;;;;;8.60;2.03;;;;;;;18.35;51.50;101754.34;4950653;28;96718;-49
2022/08/29 01:07:03;;;;;;;4.13;2.63;;;;;;;18.37;51.54;101765.00;4940886;28;98460;-49
2022/08/29 01:09:29;;;;;;;2.77;1.60;;;;;;;18.38;51.72;101769.28;4951780;28;97114;-49
2022/08/29 01:15:00;;;;;;;8.33;1.87;;;;;;;18.38;51.66;101764.47;4943441;28;97064;-49
2022/08/29 01:17:32;;;;;;;1.87;1.40;;;;;;;18.39;51.42;101770.78;4938443;28;100990;-49
2022/08/29 01:20:05;;;;;;;2.30;1.60;;;;;;;18.39;51.54;101765.94;4948050;28;96709;-49
2022/08/29 01:22:42;;;;;;;4.10;1.70;;;;;;;18.40;51.57;101769.50;4951835;28;97139;-49
2022/08/29 01:25:12;;;;;;;2.27;1.87;;;;;;;18.39;51.61;101765.22;4944888;28;102843;-49
2022/08/29 01:27:42;;;;;;;1.57;1.47;;;;;;;18.37;51.52;101762.94;4947175;28;97456;-49
2022/08/29 01:30:08;;;;;;;1.50;1.40;;;;;;;18.38;51.29;101766.47;4947061;28;97389;-49
2022/08/29 01:32:34;;;;;;;1.90;1.70;;;;;;;18.38;51.59;101770.03;4944532;28;96919;-48
2022/08/29 01:34:59;;;;;;;2.03;1.70;;;;;;;18.38;51.63;101770.03;4932428;28;97592;-49
2022/08/29 01:37:30;;;;;;;3.03;1.90;;;;;;;18.39;51.58;101768.00;4931763;28;98357;-49
2022/08/29 01:39:56;;;;;;;1.30;1.20;;;;;;;18.39;51.55;101762.44;4954019;28;96743;-49
2022/08/29 01:42:22;;;;;;;3.70;2.50;;;;;;;18.40;51.55;101759.13;4951681;28;96817;-48
2022/08/29 01:44:53;;;;;;;2.57;1.50;;;;;;;18.39;51.92;101763.16;4951603;28;97678;-49
2022/08/29 01:47:19;;;;;;;1.80;1.70;;;;;;;18.41;51.63;101765.44;4955512;28;97204;-49
2022/08/29 01:49:45;;;;;;;3.10;2.17;;;;;;;18.42;51.82;101767.72;4949500;28;96889;-47
2022/08/29 01:52:11;;;;;;;2.40;1.80;;;;;;;18.44;51.70;101761.59;4938469;28;96926;-48
2022/08/29 01:54:41;;;;;;;3.43;1.33;;;;;;;18.47;51.88;101766.19;4941549;28;97762;-49
2022/08/29 01:57:08;;;;;;;4.60;2.07;;;;;;;18.49;51.92;101760.84;4935360;28;103715;-49
2022/08/29 01:59:33;;;;;;;2.47;2.00;;;;;;;18.51;51.93;101764.63;4949346;28;97181;-48
2022/08/29 02:02:18;;;;;;;3.07;2.20;;;;;;;18.52;52.42;101768.19;4950993;28;96915;-49
2022/08/29 02:04:45;;;;;;;3.40;1.67;;;;;;;18.53;51.98;101762.06;4951400;28;100578;-49
2022/08/29 02:07:12;;;;;;;3.97;1.70;;;;;;;18.54;51.92;101765.63;4943205;28;97041;-48
2022/08/29 02:09:38;;;;;;;3.13;1.90;;;;;;;18.57;52.10;101764.56;4948755;28;96743;-49
2022/08/29 02:12:06;;;;;;;5.57;1.80;;;;;;;18.59;52.34;101764.78;4943479;28;96950;-49
2022/08/29 02:14:33;;;;;;;4.13;1.47;;;;;;;18.60;52.18;101757.94;4946715;28;97563;-50
2022/08/29 02:17:00;;;;;;;3.20;1.60;;;;;;;18.60;52.05;101766.31;4947804;28;97534;-48
2022/08/29 02:19:25;;;;;;;2.97;1.87;;;;;;;18.59;52.06;101764.78;4953834;28;96792;-49
2022/08/29 02:21:51;;;;;;;4.90;1.70;;;;;;;18.63;52.41;101768.06;4958559;28;97320;-49
2022/08/29 02:24:16;;;;;;;2.07;1.60;;;;;;;18.64;52.05;101769.56;4953314;28;96799;-49
2022/08/29 02:26:43;;;;;;;1.90;1.70;;;;;;;18.65;52.24;101774.63;4947990;28;97063;-50
2022/08/29 02:29:11;;;;;;;2.87;2.07;;;;;;;18.66;52.27;101767.00;4950851;28;97528;-53
2022/08/29 02:31:37;;;;;;;1.50;1.40;;;;;;;18.68;52.20;101775.59;4949672;28;97244;-50
2022/08/29 02:34:03;;;;;;;14.90;2.60;;;;;;;18.69;52.21;101771.56;4953686;28;97388;-49
2022/08/29 02:36:28;;;;;;;1.80;1.50;;;;;;;18.73;52.16;101771.25;4943112;28;97688;-49
2022/08/29 02:38:54;;;;;;;3.83;1.70;;;;;;;18.75;52.05;101777.06;4944874;28;97110;-49
2022/08/29 02:41:19;;;;;;;4.17;1.60;;;;;;;18.75;52.25;101775.03;4955631;28;97476;-53
2022/08/29 02:43:45;;;;;;;2.30;1.40;;;;;;;18.77;52.23;101772.47;4956832;28;97429;-49
2022/08/29 02:46:18;;;;;;;4.63;2.03;;;;;;;18.79;52.51;101771.94;4949310;28;98359;-49
2022/08/29 02:48:45;;;;;;;1.63;1.53;;;;;;;18.79;52.25;101767.13;4946223;28;97388;-49
2022/08/29 02:51:17;;;;;;;4.53;2.00;;;;;;;18.80;52.63;101763.06;4948321;28;97608;-49
2022/08/29 02:53:43;;;;;;;5.03;2.00;;;;;;;18.80;52.29;101763.06;4941594;28;98971;-48
2022/08/29 02:56:08;;;;;;;2.57;2.00;;;;;;;18.81;52.42;101761.78;4946698;28;97197;-49
2022/08/29 02:58:34;;;;;;;4.73;1.60;;;;;;;18.83;52.43;101766.84;4952804;28;97060;-55
2022/08/29 03:00:59;;;;;;;2.70;1.37;;;;;;;18.83;52.47;101764.81;4947268;28;97211;-48
2022/08/29 03:03:26;;;;;;;2.23;1.60;;;;;;;18.85;52.37;101767.09;4952080;28;99191;-49
2022/08/29 03:05:51;;;;;;;4.23;1.80;;;;;;;18.85;52.49;101767.81;4954167;28;96905;-49
2022/08/29 03:08:17;;;;;;;3.20;1.83;;;;;;;18.87;52.50;101767.31;4951260;28;97655;-49
2022/08/29 03:10:43;;;;;;;3.53;1.80;;;;;;;18.87;52.47;101768.06;4943697;28;98615;-49
2022/08/29 03:13:09;;;;;;;6.40;2.00;;;;;;;18.89;52.56;101761.97;4947640;28;97392;-49
2022/08/29 03:15:35;;;;;;;2.27;1.30;;;;;;;18.90;52.67;101771.84;4951327;28;97230;-49
2022/08/29 03:18:00;;;;;;;2.57;1.70;;;;;;;18.90;52.55;101771.84;4953415;28;96971;-49
2022/08/29 03:20:26;;;;;;;3.23;1.60;;;;;;;18.91;52.56;101753.84;4954157;28;96907;-50
2022/08/29 03:22:53;;;;;;;4.57;1.40;;;;;;;18.91;52.69;101751.81;4948596;28;99532;-48
2022/08/29 03:25:20;;;;;;;3.47;2.37;;;;;;;18.92;52.54;101750.50;4954235;28;96863;-48
2022/08/29 03:27:45;;;;;;;1.83;1.70;;;;;;;18.92;52.73;101758.88;4948948;28;97042;-49
2022/08/29 03:30:14;;;;;;;3.30;2.10;;;;;;;18.92;52.79;101764.47;4959696;28;96949;-49
2022/08/29 03:32:40;;;;;;;4.17;1.60;;;;;;;18.93;52.78;101765.97;4948260;28;101077;-48
2022/08/29 03:35:07;;;;;;;3.33;1.70;;;;;;;18.93;52.79;101759.63;4953206;28;96831;-48
2022/08/29 03:37:33;;;;;;;2.17;1.43;;;;;;;18.94;52.78;101775.84;4946269;28;97589;-49
2022/08/29 03:39:58;;;;;;;2.40;1.50;;;;;;;18.95;52.84;101771.03;4948771;28;96843;-49
2022/08/29 03:42:24;;;;;;;8.40;1.90;;;;;;;18.96;53.00;101773.28;4946562;28;97481;-48
2022/08/29 03:44:49;;;;;;;4.80;2.03;;;;;;;18.97;52.96;101771.25;4946784;28;96829;-49
2022/08/29 03:47:15;;;;;;;5.80;1.93;;;;;;;18.99;53.04;101763.88;4948434;28;97063;-48
2022/08/29 03:49:40;;;;;;;2.30;1.70;;;;;;;19.00;53.07;101770.94;4945695;28;97498;-47
2022/08/29 03:52:08;;;;;;;5.83;2.10;;;;;;;19.00;52.88;101770.94;4948218;28;97123;-49
2022/08/29 03:54:34;;;;;;;5.53;1.93;;;;;;;19.02;53.14;101767.66;4939875;28;97223;-50
2022/08/29 03:56:59;;;;;;;3.53;1.63;;;;;;;19.02;52.98;101770.44;4946402;28;96745;-49
2022/08/29 03:59:26;;;;;;;2.60;1.73;;;;;;;19.03;52.99;101774.72;4944581;28;97133;-49
2022/08/29 04:01:51;;;;;;;3.50;1.70;;;;;;;19.02;53.11;101771.22;4950945;28;97454;-49
2022/08/29 04:07:05;;;;;;;2.97;1.50;;;;;;;19.01;53.48;101766.91;4943981;28;97294;-50
2022/08/29 04:09:31;;;;;;;2.23;1.50;;;;;;;19.02;53.58;101767.66;4943852;28;96988;-48
2022/08/29 04:11:56;;;;;;;6.10;2.30;;;;;;;19.02;53.53;101771.22;4938415;28;97462;-49
2022/08/29 04:14:22;;;;;;;2.80;1.60;;;;;;;19.01;53.57;101772.47;4943938;28;96963;-48
2022/08/29 04:16:51;;;;;;;2.23;1.50;;;;;;;19.01;53.84;101771.72;4947553;28;97268;-49
2022/08/29 04:19:18;;;;;;;1.80;1.70;;;;;;;19.02;53.80;101771.22;4948537;28;97033;-49
2022/08/29 04:21:44;;;;;;;6.07;1.67;;;;;;;19.02;53.89;101773.25;4955453;28;97431;-48
2022/08/29 04:24:11;;;;;;;5.50;2.27;;;;;;;19.02;53.91;101771.22;4949389;28;97153;-49
2022/08/29 04:26:37;;;;;;;2.83;1.53;;;;;;;19.02;53.99;101774.00;4946460;28;97377;-49
2022/08/29 04:29:04;;;;;;;3.27;1.57;;;;;;;19.03;53.97;101783.84;4942063;28;97158;-47
2022/08/29 04:31:29;;;;;;;3.63;2.20;;;;;;;19.04;53.87;101771.44;4945924;28;98583;-49
2022/08/29 04:33:55;;;;;;;2.60;1.70;;;;;;;19.02;53.89;101773.25;4941496;28;97087;-49
2022/08/29 04:36:20;;;;;;;3.43;1.70;;;;;;;19.02;53.82;101774.00;4951694;28;96688;-50
2022/08/29 04:38:46;;;;;;;1.97;1.80;;;;;;;19.01;53.87;101771.72;4941720;28;96927;-49
2022/08/29 04:41:14;;;;;;;5.37;1.90;;;;;;;18.99;53.89;101783.41;4950635;28;97022;-48
2022/08/29 04:43:40;;;;;;;2.90;1.90;;;;;;;18.98;53.80;101781.88;4952495;28;96900;-48
2022/08/29 04:46:06;;;;;;;6.07;1.90;;;;;;;18.98;53.71;101781.88;4945520;28;96793;-48
2022/08/29 04:48:32;;;;;;;3.23;1.50;;;;;;;18.96;53.87;101778.88;4944392;28;96948;-48
2022/08/29 04:50:59;;;;;;;2.80;2.03;;;;;;;18.95;53.77;101779.41;4947696;28;97442;-49
2022/08/29 04:53:25;;;;;;;2.87;2.00;;;;;;;18.96;53.83;101778.13;4946035;28;97533;-49
2022/08/29 04:55:59;;;;;;;3.80;1.97;;;;;;;18.96;53.98;101780.91;4940673;28;96854;-49
2022/08/29 04:58:25;;;;;;;1.63;1.47;;;;;;;18.96;53.67;101792.06;4944182;28;97356;-49
2022/08/29 05:00:54;;;;;;;6.87;2.73;;;;;;;18.97;53.74;101785.97;4950313;28;96803;-48
2022/08/29 05:03:20;;;;;;;2.90;2.10;;;;;;;18.97;53.73;101791.53;4938670;28;100795;-49
2022/08/29 05:06:07;;;;;;;3.93;1.80;;;;;;;18.98;53.87;101787.47;4946320;28;96721;-49
2022/08/29 05:08:36;;;;;;;1.50;1.33;;;;;;;18.98;53.72;101787.47;4945198;28;97055;-48
2022/08/29 05:11:02;;;;;;;7.07;2.30;;;;;;;18.99;53.82;101791.78;4941494;28;97194;-49
2022/08/29 05:13:28;;;;;;;4.00;1.93;;;;;;;19.02;53.78;101792.75;4946807;28;96848;-49
2022/08/29 05:15:53;;;;;;;5.37;1.70;;;;;;;19.06;53.75;101793.22;4943371;28;97408;-49
2022/08/29 05:18:19;;;;;;;7.47;1.80;;;;;;;19.08;53.90;101791.41;4949690;28;97208;-49
2022/08/29 05:20:48;;;;;;;3.63;1.33;;;;;;;19.11;53.71;101798.72;4945015;28;97051;-49
2022/08/29 05:23:15;;;;;;;3.50;1.97;;;;;;;19.15;53.78;101790.84;4949629;28;98467;-48
2022/08/29 05:25:41;;;;;;;3.17;2.07;;;;;;;19.16;53.52;101800.72;4949877;28;97187;-49
2022/08/29 05:28:10;;;;;;;3.30;2.30;;;;;;;19.16;53.70;101795.13;4942695;28;98255;-49
2022/08/29 05:30:37;;;;;;;3.97;1.77;;;;;;;19.18;53.77;101797.38;4940047;28;97579;-49
2022/08/29 05:33:04;;;;;;;2.40;1.57;;;;;;;19.15;53.85;101790.84;4943973;28;97720;-47
2022/08/29 05:35:29;;;;;;;3.63;1.97;;;;;;;19.17;53.80;101796.66;4953099;28;96988;-47
2022/08/29 05:37:55;;;;;;;2.53;1.63;;;;;;;19.17;53.82;101796.66;4948920;28;97020;-47
2022/08/29 05:40:21;;;;;;;5.20;2.20;;;;;;;19.18;53.87;101809.31;4950579;28;97651;-48
2022/08/29 05:42:46;;;;;;;4.27;2.17;;;;;;;19.20;53.82;101809.53;4950502;28;97230;-48
2022/08/29 05:45:12;;;;;;;2.97;1.80;;;;;;;19.23;54.17;101805.69;4949562;28;97497;-49
2022/08/29 05:47:37;;;;;;;5.20;1.83;;;;;;;19.26;53.91;101818.59;4944105;28;97297;-49
2022/08/29 05:50:03;;;;;;;2.50;2.30;;;;;;;19.30;53.79;101823.88;4939837;28;98658;-48
2022/08/29 05:52:29;;;;;;;2.30;2.10;;;;;;;19.32;53.91;101819.31;4940314;28;99985;-48
2022/08/29 05:54:54;;;;;;;7.03;2.03;;;;;;;19.37;53.96;101818.50;4947379;28;97416;-47
2022/08/29 05:57:22;;;;;;;3.47;1.70;;;;;;;19.41;53.95;101821.75;4948402;28;97445;-50
2022/08/29 05:59:50;;;;;;;6.70;2.00;;;;;;;19.43;53.92;101824.78;4947550;28;98517;-47
2022/08/29 06:02:16;;;;;;;6.47;2.00;;;;;;;19.44;53.86;101826.28;4944077;28;97089;-49
2022/08/29 06:04:42;;;;;;;4.83;2.10;;;;;;;19.46;53.90;101811.81;4944558;28;96956;-51
2022/08/29 06:07:08;;;;;;;3.50;2.37;;;;;;;19.51;53.92;101818.59;4947525;28;96708;-48
2022/08/29 06:09:35;;;;;;;4.20;1.90;;;;;;;19.54;53.95;101828.72;4948660;28;97421;-47
2022/08/29 06:12:01;;;;;;;5.00;2.57;;;;;;;19.56;54.06;101828.94;4951538;28;97096;-48
2022/08/29 06:14:27;;;;;;;2.03;1.90;;;;;;;19.57;54.02;101824.88;4947579;28;97409;-48
2022/08/29 06:16:53;;;;;;;4.03;2.20;;;;;;;19.61;54.03;101828.88;4949721;28;96758;-51
2022/08/29 06:19:18;;;;;;;3.80;1.83;;;;;;;19.63;53.89;101833.94;4957149;28;97683;-47
2022/08/29 06:21:44;;;;;;;5.83;2.27;;;;;;;19.66;54.05;101830.09;4947899;28;97787;-47
2022/08/29 06:24:09;;;;;;;7.10;2.80;;;;;;;19.71;53.91;101840.41;4954757;28;97118;-49
2022/08/29 06:26:35;;;;;;;6.70;2.63;;;;;;;19.74;54.12;101840.13;4952745;28;96895;-47
2022/08/29 06:29:04;;;;;;;3.23;1.87;;;;;;;19.79;54.28;101839.28;4947499;28;100547;-48
2022/08/29 06:31:30;;;;;;;6.27;2.13;;;;;;;19.81;54.11;101838.78;4942713;28;97106;-47
2022/08/29 06:33:58;;;;;;;6.00;2.27;;;;;;;19.87;54.14;101843.00;4943961;28;97269;-47
2022/08/29 06:36:24;;;;;;;6.50;2.27;;;;;;;19.91;54.09;101846.25;4949388;28;97404;-48
2022/08/29 06:38:51;;;;;;;2.93;1.87;;;;;;;19.95;53.97;101843.13;4946290;28;97828;-50
2022/08/29 06:41:17;;;;;;;3.73;1.90;;;;;;;19.96;54.10;101844.66;4955587;28;99801;-48
2022/08/29 06:43:43;;;;;;;5.83;2.17;;;;;;;19.97;54.12;101851.75;4950196;28;96854;-47
2022/08/29 06:46:19;;;;;;;4.93;2.40;;;;;;;20.00;54.32;101856.28;4948649;28;97412;-48
2022/08/29 06:48:45;;;;;;;12.10;2.37;;;;;;;20.01;54.17;101852.19;4944205;28;98581;-49
2022/08/29 06:51:10;;;;;;;6.13;2.50;;;;;;;20.06;54.27;101842.97;4942857;28;97028;-47
2022/08/29 06:53:36;;;;;;;3.10;2.17;;;;;;;20.11;54.07;101845.72;4945013;28;96941;-48
2022/08/29 06:56:05;;;;;;;6.23;3.33;;;;;;;20.16;54.26;101844.09;4952500;28;96843;-49
2022/08/29 06:58:31;;;;;;;5.53;3.03;;;;;;;20.19;54.12;101840.25;4950197;28;97060;-48
2022/08/29 07:00:56;;;;;;;5.73;2.30;;;;;;;20.22;54.19;101850.41;4947041;28;97818;-47
2022/08/29 07:03:21;;;;;;;4.97;2.80;;;;;;;20.31;54.49;101852.81;4951467;28;97470;-48
2022/08/29 07:05:52;;;;;;;5.97;3.10;;;;;;;20.37;54.41;101859.06;4949012;28;97261;-47
2022/08/29 07:08:17;;;;;;;6.57;3.27;;;;;;;20.44;54.20;101852.09;4947957;28;97150;-47
2022/08/29 07:10:44;;;;;;;3.30;2.70;;;;;;;20.56;54.23;101856.22;4947502;28;97167;-47
2022/08/29 07:13:09;;;;;;;8.20;3.00;;;;;;;20.70;54.24;101850.16;4950688;28;96997;-49
2022/08/29 07:15:34;;;;;;;9.97;3.73;;;;;;;20.81;54.12;101852.00;4951025;28;97342;-49
2022/08/29 07:18:00;;;;;;;11.07;3.53;;;;;;;20.89;53.95;101848.03;4944684;28;97312;-48
2022/08/29 07:20:25;;;;;;;5.77;3.37;;;;;;;20.93;53.82;101848.44;4951373;28;97148;-49
2022/08/29 07:22:51;;;;;;;4.33;3.17;;;;;;;20.98;53.91;101846.84;4955393;28;97359;-50
2022/08/29 07:25:17;;;;;;;7.40;3.70;;;;;;;21.03;53.86;101859.22;4948344;28;96986;-47
2022/08/29 07:27:43;;;;;;;4.53;3.13;;;;;;;21.09;53.96;101871.09;4943351;28;97941;-51
2022/08/29 07:30:09;;;;;;;8.47;4.07;;;;;;;21.09;53.90;101863.47;4942946;28;96997;-48
2022/08/29 07:32:34;;;;;;;4.70;3.40;;;;;;;21.07;53.83;101868.09;4941778;28;97204;-48
2022/08/29 07:34:59;;;;;;;4.50;3.60;;;;;;;21.07;53.95;101868.09;4949177;28;97411;-47
2022/08/29 07:37:25;;;;;;;6.00;3.23;;;;;;;21.11;54.07;101862.91;4951370;28;97364;-48
2022/08/29 07:39:50;;;;;;;10.57;4.30;;;;;;;21.18;53.99;101862.28;4948012;28;97176;-48
2022/08/29 07:42:16;;;;;;;6.63;3.57;;;;;;;21.23;53.87;101855.84;4953318;28;97088;-49
2022/08/29 07:44:41;;;;;;;10.10;4.67;;;;;;;21.24;53.93;101863.69;4950042;28;98431;-47
2022/08/29 07:47:06;;;;;;;6.57;3.57;;;;;;;21.33;53.91;101849.25;4955756;28;96776;-49
2022/08/29 07:49:32;;;;;;;6.63;3.90;;;;;;;21.40;53.91;101853.47;4946483;28;97289;-49
2022/08/29 07:51:58;;;;;;;3.90;3.50;;;;;;;21.48;53.86;101855.06;4941633;28;96928;-48
2022/08/29 07:54:24;;;;;;;4.40;2.80;;;;;;;21.53;53.63;101861.84;4950726;28;97623;-47
2022/08/29 07:56:51;;;;;;;8.90;4.27;;;;;;;21.60;53.71;101852.81;4951479;28;97503;-48
2022/08/29 07:59:18;;;;;;;5.73;3.27;;;;;;;21.63;53.69;101857.31;4951058;28;97740;-48
2022/08/29 08:01:44;;;;;;;4.40;3.30;;;;;;;21.64;53.65;101858.81;4938382;28;97147;-48
2022/08/29 08:04:10;;;;;;;8.83;4.07;;;;;;;21.61;53.59;101869.06;4950061;28;97197;-48
2022/08/29 08:06:39;;;;;;;3.63;3.30;;;;;;;21.54;53.63;101858.50;4944627;28;96911;-47
2022/08/29 08:09:06;;;;;;;8.30;4.03;;;;;;;21.53;53.86;101859.06;4943536;28;97495;-48
2022/08/29 08:11:31;;;;;;;4.27;3.30;;;;;;;21.52;53.91;101863.13;4938847;28;97118;-50
2022/08/29 08:13:57;;;;;;;7.50;3.83;;;;;;;21.51;53.98;101870.03;4950349;28;97134;-47
2022/08/29 08:16:24;;;;;;;9.83;4.10;;;;;;;21.53;54.04;101876.63;4953631;28;97297;-48
2022/08/29 08:18:51;;;;;;;6.17;3.80;;;;;;;21.57;53.93;101874.25;4944628;28;96869;-48
2022/08/29 08:21:16;;;;;;;7.10;3.90;;;;;;;21.64;54.08;101878.44;4951888;28;97447;-47
2022/08/29 08:23:42;;;;;;;12.07;3.77;;;;;;;21.74;54.07;101878.72;4943992;28;97358;-51
2022/08/29 08:26:10;;;;;;;5.00;3.67;;;;;;;21.91;54.04;101887.59;4944083;28;97155;-50
2022/08/29 08:28:35;;;;;;;5.57;3.50;;;;;;;22.07;53.80;101887.22;4940291;28;97673;-48
2022/08/29 08:31:04;;;;;;;6.80;3.60;;;;;;;22.22;53.82;101887.38;4945648;28;97260;-50
2022/08/29 08:33:30;;;;;;;6.70;3.63;;;;;;;22.35;53.72;101881.72;4950908;28;97255;-46
2022/08/29 08:35:56;;;;;;;6.20;3.60;;;;;;;22.40;53.47;101880.09;4948562;28;97494;-48
2022/08/29 08:38:21;;;;;;;3.90;3.50;;;;;;;22.38;53.35;101877.84;4951195;28;97821;-47
2022/08/29 08:41:25;;;;;;;6.87;3.50;;;;;;;22.41;53.71;101878.03;4953719;28;96919;-49
2022/08/29 08:44:17;;;;;;;6.80;3.87;;;;;;;22.48;53.54;101878.09;4949717;28;97060;-46
2022/08/29 08:46:46;;;;;;;4.63;3.23;;;;;;;22.64;53.28;101876.22;4942466;28;100326;-47
2022/08/29 08:49:20;;;;;;;7.23;4.20;;;;;;;22.84;53.30;101873.41;4941549;28;97322;-49
2022/08/29 08:51:51;;;;;;;7.67;3.67;;;;;;;23.00;52.92;101871.44;4938745;28;96903;-46
2022/08/29 08:54:22;;;;;;;6.07;3.53;;;;;;;23.09;52.69;101871.72;4942295;28;96822;-46
2022/08/29 08:56:53;;;;;;;5.17;3.63;;;;;;;23.22;52.77;101878.56;4948542;28;96676;-48
2022/08/29 08:59:19;;;;;;;4.40;3.40;;;;;;;23.23;52.51;101875.19;4945130;28;97139;-47
2022/08/29 09:01:56;;;;;;;6.00;4.17;;;;;;;23.18;52.50;101878.88;4955594;28;96983;-49
2022/08/29 09:04:59;;;;;;;4.07;3.60;;;;;;;23.22;52.79;101881.38;4944881;28;96973;-48
2022/08/29 09:08:03;;;;;;;4.57;3.67;;;;;;;23.33;53.04;101884.63;4940891;28;100581;-51
2022/08/29 09:10:44;;;;;;;4.17;3.17;;;;;;;23.44;52.50;101877.94;4937925;28;100330;-48
2022/08/29 09:13:45;;;;;;;3.33;3.00;;;;;;;23.46;52.02;101876.09;4939810;28;96783;-50
2022/08/29 09:16:22;;;;;;;3.17;2.87;;;;;;;23.66;52.02;101872.44;4950396;28;97257;-47
2022/08/29 09:18:48;;;;;;;2.83;2.53;;;;;;;23.69;51.81;101874.16;4943960;28;96857;-47
2022/08/29 09:21:19;;;;;;;8.20;2.80;;;;;;;23.69;51.86;101874.16;4953212;28;97179;-49
2022/08/29 09:23:48;;;;;;;2.97;2.53;;;;;;;23.70;51.99;101875.66;4956951;28;97194;-48
2022/08/29 09:26:21;;;;;;;4.13;2.30;;;;;;;23.79;51.68;101877.94;4944427;28;97115;-53
2022/08/29 09:28:48;;;;;;;4.57;3.00;;;;;;;23.89;51.83;101872.56;4938231;28;97184;-53
2022/08/29 09:31:21;;;;;;;3.57;2.57;;;;;;;24.00;51.19;101877.09;4944910;28;97313;-48
2022/08/29 09:34:00;;;;;;;2.87;2.40;;;;;;;23.99;51.55;101873.53;4948133;28;97756;-48
2022/08/29 09:36:40;;;;;;;3.40;2.07;;;;;;;24.03;51.41;101870.34;4945531;28;97198;-48
2022/08/29 09:39:11;;;;;;;6.30;2.43;;;;;;;24.16;51.45;101861.78;4946683;28;96755;-47
2022/08/29 09:41:36;;;;;;;3.37;2.33;;;;;;;24.28;51.36;101868.56;4949644;28;97213;-46
2022/08/29 09:44:01;;;;;;;2.97;2.07;;;;;;;24.44;51.07;101875.72;4949621;28;96997;-48
2022/08/29 09:46:27;;;;;;;3.27;2.63;;;;;;;24.53;50.73;101878.72;4945183;28;96904;-49
2022/08/29 09:49:01;;;;;;;4.73;2.77;;;;;;;24.60;50.80;101874.41;4945416;28;97868;-47
2022/08/29 09:51:33;;;;;;;3.53;2.40;;;;;;;24.70;50.55;101874.63;4943072;28;101468;-46
2022/08/29 09:54:14;;;;;;;2.73;2.30;;;;;;;24.73;49.98;101876.28;4945394;28;96720;-47
2022/08/29 09:56:57;;;;;;;10.30;2.33;;;;;;;24.76;50.29;101875.97;4948199;28;96998;-46
2022/08/29 09:59:32;;;;;;;2.83;1.77;;;;;;;24.83;49.98;101872.41;4948788;28;96761;-48
2022/08/29 10:02:28;;;;;;;2.90;2.17;;;;;;;24.90;49.43;101874.44;4944757;28;97593;-48
2022/08/29 10:05:08;;;;;;;1.93;1.73;;;;;;;24.81;49.32;101877.84;4948860;28;97163;-47
2022/08/29 10:07:48;;;;;;;1.80;1.70;;;;;;;24.88;50.01;101877.06;4946288;28;97054;-47
2022/08/29 10:10:18;;;;;;;2.23;2.03;;;;;;;24.99;49.68;101876.69;4943688;28;100740;-48
2022/08/29 10:13:05;;;;;;;2.47;1.83;;;;;;;25.03;48.75;101879.88;4952265;28;98819;-48
2022/08/29 10:15:42;;;;;;;1.80;1.70;;;;;;;24.98;49.28;101882.91;4953137;28;96933;-50
2022/08/29 10:18:26;;;;;;;2.30;1.70;;;;;;;24.98;49.44;101877.25;4944437;28;97424;-46
2022/08/29 10:21:09;;;;;;;1.77;1.67;;;;;;;24.99;49.09;101884.38;4947950;28;97201;-47
2022/08/29 10:23:50;;;;;;;2.13;1.67;;;;;;;25.04;48.77;101889.09;4949658;28;100997;-47
2022/08/29 10:26:38;;;;;;;2.27;2.07;;;;;;;24.98;48.85;101882.91;4936061;28;97147;-48
2022/08/29 10:29:22;;;;;;;1.63;1.47;;;;;;;25.05;48.93;101882.88;4937117;28;97830;-48
2022/08/29 10:32:14;;;;;;;5.03;2.13;;;;;;;25.16;48.58;101882.50;4940529;28;101204;-48
2022/08/29 10:34:54;;;;;;;2.67;1.83;;;;;;;25.20;48.82;101879.31;4950897;28;100059;-47
2022/08/29 10:37:38;;;;;;;2.23;1.67;;;;;;;25.27;48.97;101876.47;4949044;28;97854;-47
2022/08/29 10:40:21;;;;;;;2.00;1.80;;;;;;;25.37;48.34;101871.00;4947920;28;98401;-47
2022/08/29 10:42:50;;;;;;;2.07;1.97;;;;;;;25.38;48.69;101872.47;4946936;28;101715;-49
2022/08/29 10:45:34;;;;;;;3.83;2.10;;;;;;;25.44;48.51;101875.91;4945033;28;102036;-47
2022/08/29 10:48:35;;;;;;;2.53;1.70;;;;;;;25.55;48.25;101869.09;4940271;28;97041;-49
2022/08/29 10:51:34;;;;;;;2.07;1.87;;;;;;;25.70;48.00;101860.59;4944552;28;96885;-51
2022/08/29 10:54:12;;;;;;;2.50;1.53;;;;;;;25.86;47.46;101862.03;4940579;28;101826;-54
2022/08/29 10:56:45;;;;;;;3.07;1.80;;;;;;;25.97;47.23;101848.22;4952964;28;97274;-51
2022/08/29 10:59:18;;;;;;;1.40;1.30;;;;;;;26.11;47.51;101848.75;4951692;28;97452;-47
2022/08/29 11:02:04;;;;;;;3.53;1.90;;;;;;;26.17;46.52;101857.72;4954341;28;97897;-49
2022/08/29 11:04:36;;;;;;;1.73;1.60;;;;;;;26.17;47.08;101857.72;4951549;28;97828;-48
2022/08/29 11:07:06;;;;;;;1.50;1.40;;;;;;;26.21;47.02;101858.06;4953424;28;97159;-47
2022/08/29 11:09:44;;;;;;;1.60;1.30;;;;;;;26.26;46.72;101853.53;4937754;28;96674;-51
2022/08/29 11:12:32;;;;;;;1.60;1.50;;;;;;;26.33;47.03;101852.75;4948620;28;96844;-47
2022/08/29 11:15:03;;;;;;;1.60;1.50;;;;;;;26.54;47.05;101851.06;4946444;28;100391;-46
2022/08/29 11:17:36;;;;;;;1.83;1.30;;;;;;;26.67;46.70;101853.59;4954995;28;97049;-47
2022/08/29 11:20:26;;;;;;;2.13;1.30;;;;;;;26.73;44.93;101856.22;4952468;28;97160;-51
2022/08/29 11:23:00;;;;;;;3.40;1.77;;;;;;;26.56;46.05;101856.16;4949475;28;97180;-48
2022/08/29 11:25:26;;;;;;;2.20;1.50;;;;;;;26.46;46.67;101853.22;4948851;28;100457;-49
2022/08/29 11:28:10;;;;;;;1.37;1.27;;;;;;;26.45;46.21;101853.78;4941346;28;98285;-48
2022/08/29 11:30:45;;;;;;;1.43;1.07;;;;;;;26.53;46.19;101869.34;4946558;28;97482;-50
2022/08/29 11:33:49;;;;;;;1.30;1.20;;;;;;;26.72;46.35;101852.63;4949239;28;97823;-48
2022/08/29 11:36:42;;;;;;;1.20;1.13;;;;;;;26.95;45.72;101855.28;4893917;28;102061;-47
2022/08/29 11:39:16;;;;;;;2.37;1.33;;;;;;;27.20;45.18;101847.47;4893995;28;100098;-48
2022/08/29 11:41:47;;;;;;;2.20;1.57;;;;;;;27.38;45.06;101862.38;4932546;28;97154;-50